Time;durP1;ratioP1;P1;durP2;ratioP2;P2;SDS_P1;SDS_P2;PMS_P1;PMS_P2;Temp;Humidity;BMP_temperature;BMP_pressure;BME280_temperature;BME280_humidity;BME280_pressure;Samples;Min_cycle;Max_cycle;Signal;HPM_P1;HPM_P2
2023/02/08 00:00:44;;;;;;;28.85;12.57;;;;;;;-1.29;100.00;102463.44;20894137;28;20132;-70
2023/02/08 00:10:45;;;;;;;29.45;13.07;;;;;;;-1.41;100.00;102463.50;20896786;28;20056;-70
2023/02/08 00:20:46;;;;;;;26.75;13.32;;;;;;;-1.49;100.00;102454.41;20896315;28;20055;-71
2023/02/08 00:30:48;;;;;;;35.47;14.05;;;;;;;-1.58;100.00;102451.25;20894616;28;20056;-71
2023/02/08 00:40:49;;;;;;;24.20;12.75;;;;;;;-1.67;100.00;102453.22;20895004;28;20095;-71
2023/02/08 00:50:50;;;;;;;28.25;13.30;;;;;;;-1.92;100.00;102458.34;20893290;28;20107;-71
2023/02/08 01:00:52;;;;;;;26.45;12.35;;;;;;;-2.01;100.00;102457.72;20948788;28;20048;-71
2023/02/08 01:10:53;;;;;;;28.30;12.85;;;;;;;-2.11;100.00;102452.00;20975201;28;20078;-71
2023/02/08 01:20:55;;;;;;;25.73;12.35;;;;;;;-2.12;100.00;102460.44;20974561;28;20122;-71
2023/02/08 01:30:56;;;;;;;28.00;13.05;;;;;;;-2.04;100.00;102434.44;20974235;28;20460;-71
2023/02/08 01:40:57;;;;;;;24.27;11.43;;;;;;;-2.08;100.00;102443.59;20973249;28;20066;-71
2023/02/08 01:50:59;;;;;;;27.30;11.80;;;;;;;-2.16;100.00;102426.78;20973151;28;20578;-70
2023/02/08 02:01:00;;;;;;;24.33;12.30;;;;;;;-2.24;100.00;102426.25;20914371;28;20059;-71
2023/02/08 02:11:02;;;;;;;27.85;13.60;;;;;;;-2.40;100.00;102423.41;20888098;28;20132;-71
2023/02/08 02:21:03;;;;;;;25.15;11.25;;;;;;;-2.47;100.00;102411.84;20888500;28;20045;-70
2023/02/08 02:31:06;;;;;;;28.52;12.43;;;;;;;-2.65;100.00;102413.13;20889243;28;20052;-72
2023/02/08 02:41:07;;;;;;;29.27;12.83;;;;;;;-2.66;100.00;102406.22;20888582;28;20057;-73
2023/02/08 02:51:08;;;;;;;24.73;11.73;;;;;;;-2.79;100.00;102395.91;20887059;28;20049;-71
2023/02/08 03:01:10;;;;;;;27.15;13.27;;;;;;;-2.92;100.00;102395.06;20886057;28;20081;-71
2023/02/08 03:11:11;;;;;;;25.40;11.27;;;;;;;-2.92;100.00;102391.59;20887853;28;20053;-71
2023/02/08 03:21:12;;;;;;;26.27;12.77;;;;;;;-3.04;100.00;102386.47;20903445;28;20045;-71
2023/02/08 03:31:14;;;;;;;25.73;11.88;;;;;;;-3.16;100.00;102396.75;20900033;28;20044;-71
2023/02/08 03:41:15;;;;;;;27.38;11.95;;;;;;;-3.16;100.00;102399.31;20900493;28;20052;-72
2023/02/08 03:51:16;;;;;;;27.33;12.27;;;;;;;-3.25;100.00;102408.03;20897291;28;20049;-71
2023/02/08 04:01:18;;;;;;;23.33;11.20;;;;;;;-3.40;100.00;102416.38;20897126;28;20528;-71
2023/02/08 04:11:19;;;;;;;26.90;12.05;;;;;;;-3.57;100.00;102411.69;20898932;28;20088;-71
2023/02/08 04:21:20;;;;;;;24.92;12.07;;;;;;;-3.74;100.00;102423.22;20896389;28;20438;-71
2023/02/08 04:31:21;;;;;;;29.48;12.48;;;;;;;-3.84;100.00;102420.75;20896093;28;20049;-70
2023/02/08 04:41:23;;;;;;;28.65;12.25;;;;;;;-3.94;100.00;102411.50;20895664;28;20068;-70
2023/02/08 04:51:25;;;;;;;26.95;12.45;;;;;;;-4.00;100.00;102398.25;20892906;28;20144;-71
2023/02/08 05:01:26;;;;;;;30.45;12.82;;;;;;;-4.02;100.00;102399.81;20954207;28;20044;-71
2023/02/08 05:11:27;;;;;;;29.40;13.23;;;;;;;-4.07;100.00;102379.75;20975608;28;20429;-70
2023/02/08 05:21:29;;;;;;;28.42;13.00;;;;;;;-4.01;100.00;102376.00;20974653;28;20052;-71
2023/02/08 05:31:30;;;;;;;34.83;15.45;;;;;;;-4.13;100.00;102375.06;20974534;28;20056;-71
2023/02/08 05:41:31;;;;;;;37.30;16.00;;;;;;;-4.08;100.00;102378.88;20973309;28;20069;-70
2023/02/08 05:51:33;;;;;;;33.88;16.38;;;;;;;-4.02;100.00;102384.47;20966578;28;20056;-71
2023/02/08 06:01:34;;;;;;;38.55;15.38;;;;;;;-4.09;100.00;102392.44;21034755;23;20419;-72
2023/02/08 06:11:35;;;;;;;38.28;17.25;;;;;;;-4.20;100.00;102409.53;21139035;28;20132;-71
2023/02/08 06:21:36;;;;;;;44.63;19.13;;;;;;;-4.32;100.00;102408.59;21137440;28;20067;-71
2023/02/08 06:31:38;;;;;;;57.15;21.75;;;;;;;-4.20;100.00;102408.66;21137406;28;20067;-73
2023/02/08 06:41:39;;;;;;;31.17;13.90;;;;;;;-4.15;100.00;102412.44;21138058;28;20056;-74
2023/02/08 06:51:40;;;;;;;32.03;13.85;;;;;;;-4.07;100.00;102425.81;21143192;28;20369;-75
2023/02/08 07:01:42;;;;;;;33.83;13.50;;;;;;;-4.05;100.00;102425.16;21152272;28;20411;-72
2023/02/08 07:11:43;;;;;;;31.95;14.32;;;;;;;-3.90;100.00;102421.19;21153277;28;20415;-73
2023/02/08 07:21:44;;;;;;;29.13;14.05;;;;;;;-3.78;100.00;102423.78;21151511;28;20039;-71
2023/02/08 07:31:46;;;;;;;31.02;14.35;;;;;;;-3.85;100.00;102428.31;21150130;28;20044;-73
2023/02/08 07:41:47;;;;;;;31.02;14.52;;;;;;;-3.63;100.00;102429.16;21147220;28;20146;-73
2023/02/08 07:51:48;;;;;;;27.55;13.27;;;;;;;-3.37;100.00;102424.25;21148891;28;20040;-72
2023/02/08 08:01:49;;;;;;;34.65;14.27;;;;;;;-2.99;100.00;102415.88;21135105;28;20048;-72
2023/02/08 08:11:51;;;;;;;28.27;12.60;;;;;;;-2.66;100.00;102416.50;21134554;28;20138;-73
2023/02/08 08:21:52;;;;;;;29.98;13.70;;;;;;;-2.39;100.00;102418.41;21128162;28;20113;-74
2023/02/08 08:31:53;;;;;;;29.33;12.77;;;;;;;-2.06;100.00;102406.06;21120615;28;20466;-74
2023/02/08 08:41:55;;;;;;;29.75;14.05;;;;;;;-1.73;100.00;102417.72;21126418;28;20480;-72
2023/02/08 08:51:57;;;;;;;26.98;12.32;;;;;;;-1.59;95.43;102404.09;21132573;28;20051;-70
2023/02/08 09:01:58;;;;;;;25.88;13.20;;;;;;;-1.24;93.05;102409.78;21143442;28;20113;-71
2023/02/08 09:12:00;;;;;;;28.58;13.35;;;;;;;-1.17;88.37;102409.34;21142959;28;20047;-70
2023/02/08 09:22:01;;;;;;;28.92;12.35;;;;;;;-1.01;86.81;102404.38;21139741;28;20503;-71
2023/02/08 09:32:03;;;;;;;27.48;13.00;;;;;;;-0.73;85.76;102399.28;21139304;28;20051;-70
2023/02/08 09:42:04;;;;;;;26.42;12.60;;;;;;;-0.46;83.13;102394.97;21139393;28;20074;-70
2023/02/08 09:52:05;;;;;;;26.38;12.45;;;;;;;-0.21;79.39;102392.19;21138126;28;20073;-73
2023/02/08 10:02:07;;;;;;;26.13;12.20;;;;;;;0.08;78.08;102382.72;21137456;28;20123;-70
2023/02/08 10:12:08;;;;;;;27.05;12.73;;;;;;;0.24;73.92;102372.53;21136072;28;20052;-70
2023/02/08 10:22:09;;;;;;;27.13;13.60;;;;;;;0.42;75.21;102357.19;21139515;28;20126;-70
2023/02/08 10:32:11;;;;;;;30.85;14.10;;;;;;;0.70;73.28;102345.06;21151473;28;20064;-73
2023/02/08 10:42:13;;;;;;;28.15;12.63;;;;;;;0.87;72.16;102332.22;21155241;28;20522;-75
2023/02/08 10:52:14;;;;;;;26.63;12.40;;;;;;;1.05;67.32;102328.03;21153790;28;20047;-73
2023/02/08 11:02:15;;;;;;;22.52;10.50;;;;;;;1.34;66.54;102313.22;21153660;28;20077;-73
2023/02/08 11:12:16;;;;;;;26.83;11.95;;;;;;;1.41;62.31;102302.44;21150016;28;20051;-72
2023/02/08 11:22:18;;;;;;;24.08;11.05;;;;;;;1.84;64.67;102287.44;21145378;28;20100;-74
2023/02/08 11:32:19;;;;;;;20.48;11.13;;;;;;;1.79;60.23;102275.97;21147256;28;20051;-72
2023/02/08 11:42:20;;;;;;;24.90;11.50;;;;;;;1.94;60.17;102257.78;21150552;28;20058;-72
2023/02/08 11:52:23;;;;;;;22.13;11.40;;;;;;;2.22;59.83;102260.88;21140092;28;20050;-73
2023/02/08 12:02:25;;;;;;;24.15;10.63;;;;;;;2.30;60.64;102246.63;21098808;22;20039;-73
2023/02/08 12:12:26;;;;;;;20.83;10.38;;;;;;;2.56;59.75;102236.63;21137201;28;20074;-71
2023/02/08 12:22:27;;;;;;;21.08;10.70;;;;;;;2.68;60.58;102229.41;21147173;28;20043;-71
2023/02/08 13:25:49;;;;;;;25.95;11.15;;;;;;;3.46;58.50;102139.66;20942926;28;20076;-81
2023/02/08 13:35:51;;;;;;;19.05;9.60;;;;;;;3.57;55.74;102133.19;21003125;28;20501;-79
2023/02/08 13:45:52;;;;;;;24.15;10.70;;;;;;;3.73;57.16;102110.50;20970823;28;20045;-80
2023/02/08 13:55:53;;;;;;;22.67;10.40;;;;;;;3.91;54.39;102110.34;20887108;28;20441;-79
2023/02/08 14:05:57;;;;;;;20.83;9.77;;;;;;;4.02;54.91;102109.03;20886397;28;20398;-79
2023/02/08 14:15:59;;;;;;;18.67;9.23;;;;;;;4.01;53.42;102109.88;20871751;28;20115;-79
2023/02/08 14:26:00;;;;;;;17.50;7.68;;;;;;;4.01;54.98;102096.91;20870140;28;20061;-79
2023/02/08 14:36:01;;;;;;;15.93;6.85;;;;;;;3.93;53.73;102077.59;20874245;28;20045;-79
2023/02/08 14:46:03;;;;;;;17.25;8.07;;;;;;;3.91;55.62;102068.88;20910449;28;20076;-79
2023/02/08 14:56:04;;;;;;;16.40;7.22;;;;;;;4.07;54.06;102066.03;20911709;28;20052;-79
2023/02/08 15:06:05;;;;;;;16.77;6.82;;;;;;;4.00;53.93;102062.34;20881765;28;20060;-79
2023/02/08 15:16:06;;;;;;;14.50;6.50;;;;;;;3.88;55.13;102048.03;20891825;28;20076;-79
2023/02/08 15:26:08;;;;;;;16.42;7.28;;;;;;;3.79;55.88;102039.09;20848726;28;20103;-80
2023/02/08 15:36:09;;;;;;;12.15;6.55;;;;;;;3.63;58.72;102031.53;20882432;28;20056;-79
2023/02/08 15:46:10;;;;;;;15.30;7.05;;;;;;;3.55;57.03;102032.97;20886807;28;20053;-79
2023/02/08 15:56:12;;;;;;;15.23;6.55;;;;;;;3.27;58.94;102037.06;20861725;28;20139;-80
2023/02/08 16:06:13;;;;;;;13.60;5.95;;;;;;;3.22;59.37;102033.41;20869808;28;20092;-79
2023/02/08 16:16:14;;;;;;;14.50;6.30;;;;;;;2.97;60.52;102028.94;20881299;28;20061;-79
2023/02/08 16:26:15;;;;;;;16.92;7.25;;;;;;;2.73;60.61;102031.38;20924392;28;20121;-80
2023/02/08 16:36:17;;;;;;;12.60;6.35;;;;;;;2.52;61.97;102030.44;20916351;28;20045;-80
2023/02/08 16:46:23;;;;;;;13.57;6.40;;;;;;;2.49;62.21;102040.66;20903799;28;20096;-80
2023/02/08 16:56:24;;;;;;;27.70;12.05;;;;;;;2.27;65.21;102054.34;20915592;28;20059;-80
2023/02/08 17:06:25;;;;;;;21.63;10.27;;;;;;;2.10;65.83;102055.28;20930545;28;20049;-81
2023/02/08 17:16:27;;;;;;;21.90;9.63;;;;;;;1.89;67.66;102052.63;20898756;28;20057;-80
2023/02/08 17:26:28;;;;;;;15.00;7.43;;;;;;;1.67;68.94;102063.63;20869115;28;20429;-80
2023/02/08 17:36:30;;;;;;;21.35;8.05;;;;;;;1.58;69.70;102058.91;20856763;28;20076;-81
2023/02/08 17:46:31;;;;;;;19.75;9.68;;;;;;;1.54;70.27;102064.78;20902111;28;20111;-81
2023/02/08 17:56:34;;;;;;;17.48;8.43;;;;;;;1.02;75.15;102068.28;20862604;23;20048;-69
2023/02/08 18:06:35;;;;;;;19.33;9.43;;;;;;;1.04;74.04;102068.34;20849609;28;20060;-69
2023/02/08 18:16:36;;;;;;;29.33;13.82;;;;;;;0.75;76.80;102067.75;20934051;28;20107;-68
2023/02/08 18:26:38;;;;;;;28.17;12.40;;;;;;;0.62;78.00;102079.94;20940942;28;20492;-68
2023/02/08 18:36:39;;;;;;;37.80;16.42;;;;;;;0.40;80.93;102085.69;20931046;28;20048;-69
2023/02/08 18:46:40;;;;;;;44.70;20.58;;;;;;;0.13;84.84;102085.97;20933015;28;20053;-69
2023/02/08 18:56:42;;;;;;;69.57;29.02;;;;;;;-0.13;88.67;102089.75;20949123;28;20067;-68
2023/02/08 19:06:43;;;;;;;48.45;20.67;;;;;;;-0.40;92.44;102076.22;20945941;28;20041;-69
2023/02/08 19:16:45;;;;;;;33.88;16.77;;;;;;;-0.29;91.07;102067.44;20966948;28;20052;-68
2023/02/08 19:26:46;;;;;;;75.65;36.40;;;;;;;-0.35;92.07;102067.06;20951717;28;20044;-68
2023/02/08 19:36:48;;;;;;;39.10;17.83;;;;;;;-0.46;92.02;102077.59;20944144;28;20181;-68
2023/02/08 19:46:49;;;;;;;39.40;18.20;;;;;;;-0.56;92.42;102066.78;20943346;28;20139;-69
2023/02/08 19:56:53;;;;;;;174.25;50.80;;;;;;;-0.86;98.36;102057.34;20941549;28;20087;-68
2023/02/08 20:06:54;;;;;;;67.43;29.27;;;;;;;-1.51;100.00;102068.09;20940273;28;20079;-68
2023/02/08 20:16:55;;;;;;;41.53;20.05;;;;;;;-1.69;100.00;102061.84;20942522;28;20049;-68
2023/02/08 20:26:57;;;;;;;38.05;17.88;;;;;;;-1.44;100.00;102066.78;20938369;28;20057;-69
2023/02/08 20:36:58;;;;;;;39.42;18.80;;;;;;;-1.37;100.00;102054.41;20940185;28;20107;-68
2023/02/08 20:47:09;;;;;;;34.08;15.63;;;;;;;-1.19;100.00;102048.56;20940727;28;20409;-68
2023/02/08 20:57:12;;;;;;;31.42;13.05;;;;;;;-0.98;96.84;102057.50;20936255;28;20061;-68
2023/02/08 21:07:13;;;;;;;26.87;12.83;;;;;;;-1.10;97.67;102056.81;20936874;28;20075;-68
2023/02/08 21:17:15;;;;;;;27.77;12.38;;;;;;;-1.12;97.71;102059.28;20938347;28;20061;-68
2023/02/08 21:27:17;;;;;;;31.52;12.63;;;;;;;-1.27;100.00;102044.66;20934642;28;20103;-71
2023/02/08 21:37:19;;;;;;;26.55;12.15;;;;;;;-1.50;100.00;102022.75;20936712;28;20053;-71
2023/02/08 21:47:20;;;;;;;27.67;12.68;;;;;;;-1.56;100.00;102023.28;20933029;28;20405;-72
2023/02/08 21:57:22;;;;;;;33.25;13.77;;;;;;;-1.54;100.00;101998.56;20953802;28;20110;-70
2023/02/08 22:07:23;;;;;;;30.58;13.70;;;;;;;-1.49;100.00;101999.72;20943033;28;20052;-70
2023/02/08 22:17:24;;;;;;;30.40;13.80;;;;;;;-1.46;100.00;101993.88;20941013;28;20061;-70
2023/02/08 22:27:26;;;;;;;29.40;14.02;;;;;;;-1.55;100.00;101999.38;20891577;28;20053;-69
2023/02/08 22:37:27;;;;;;;36.45;16.27;;;;;;;-1.77;100.00;101998.88;20918528;28;20118;-70
2023/02/08 22:47:29;;;;;;;35.85;16.55;;;;;;;-1.93;100.00;101997.09;20931829;28;20056;-71
2023/02/08 22:57:30;;;;;;;45.50;21.33;;;;;;;-1.94;100.00;101993.63;20931269;28;20117;-70
2023/02/08 23:07:31;;;;;;;27.58;12.70;;;;;;;-2.47;100.00;101998.06;20938364;28;20060;-69
2023/02/08 23:17:32;;;;;;;32.55;14.05;;;;;;;-2.67;100.00;102000.25;20938957;28;20053;-70
2023/02/08 23:27:33;;;;;;;37.75;15.57;;;;;;;-2.72;100.00;102011.00;20939171;28;20102;-69
2023/02/08 23:37:35;;;;;;;41.95;15.90;;;;;;;-2.66;100.00;101990.88;20951524;28;20051;-68
2023/02/08 23:47:36;;;;;;;34.83;14.38;;;;;;;-2.64;100.00;101984.16;20951077;28;20111;-69
2023/02/08 23:57:37;;;;;;;34.25;13.68;;;;;;;-2.63;100.00;101986.84;20947874;28;20052;-69
